createdAt,value
2018-11-25T00:39:53.640Z,47.10
2018-11-25T01:06:03.378Z,47.20
2018-11-25T01:19:10.564Z,47.20
2018-11-25T01:32:17.701Z,47.20
2018-11-25T01:45:24.889Z,47.20
2018-11-25T01:58:32.016Z,47.30
2018-11-25T02:11:39.175Z,47.30
2018-11-25T02:24:46.374Z,47.30
2018-11-25T02:37:53.527Z,47.30
2018-11-25T02:51:00.700Z,47.40
2018-11-25T03:04:07.891Z,47.40
2018-11-25T03:17:15.095Z,47.50
2018-11-25T03:43:24.675Z,47.40
2018-11-25T03:56:31.912Z,47.40
2018-11-25T04:09:39.104Z,47.40
2018-11-25T04:22:46.246Z,47.50
2018-11-25T04:35:53.410Z,47.40
2018-11-25T04:49:00.568Z,47.40
2018-11-25T05:02:07.727Z,47.40
2018-11-25T05:15:14.940Z,47.50
2018-11-25T05:28:22.137Z,47.50
2018-11-25T05:41:29.288Z,47.50
2018-11-25T05:54:36.440Z,47.60
2018-11-25T06:07:43.593Z,47.60
2018-11-25T06:20:50.747Z,47.60
2018-11-25T06:33:57.911Z,47.50
2018-11-25T07:00:07.835Z,47.40
2018-11-25T07:13:14.977Z,47.40
2018-11-25T07:39:24.564Z,47.20
2018-11-25T08:18:36.682Z,43.60
2018-11-25T08:31:43.874Z,44.00
2018-11-25T08:44:51.080Z,44.90
2018-11-25T08:57:58.312Z,45.40
2018-11-25T09:11:05.526Z,45.00
2018-11-25T09:24:12.692Z,44.80
2018-11-25T09:37:19.902Z,45.10
2018-11-25T09:50:27.091Z,44.90
2018-11-25T10:03:35.275Z,45.10
2018-11-25T10:16:42.434Z,45.30
2018-11-25T10:29:49.581Z,48.10
2018-11-25T10:55:59.541Z,45.60
2018-11-25T11:09:06.723Z,45.80
2018-11-25T11:35:16.247Z,46.80
2018-11-25T11:48:23.407Z,47.20
2018-11-25T12:01:30.603Z,47.00
2018-11-25T12:14:37.806Z,43.50
2018-11-25T12:27:44.994Z,42.90
2018-11-25T12:40:52.148Z,44.10
2018-11-25T12:53:59.292Z,42.70
2018-11-25T13:07:06.502Z,44.10
2018-11-25T13:20:13.661Z,45.20
2018-11-25T13:33:20.822Z,45.90
2018-11-25T13:46:28.009Z,46.30
2018-11-25T13:59:35.176Z,46.60
2018-11-25T14:12:42.334Z,46.90
2018-11-25T14:25:49.565Z,47.10
2018-11-25T14:38:56.737Z,47.30
2018-11-25T14:52:03.966Z,46.70
2018-11-25T15:05:11.205Z,47.30
2018-11-25T15:18:18.364Z,47.00
2018-11-25T15:31:25.558Z,46.80
2018-11-25T15:44:32.801Z,46.80
2018-11-25T15:57:40.200Z,47.40
2018-11-25T16:10:47.461Z,47.40
2018-11-25T16:23:54.636Z,47.40
2018-11-25T16:37:01.821Z,47.60
2018-11-25T16:50:09.065Z,47.70
2018-11-25T17:03:16.347Z,47.90
2018-11-25T17:16:23.570Z,48.00
2018-11-25T17:29:30.734Z,47.80
2018-11-25T17:42:37.981Z,42.20
2018-11-25T17:55:45.212Z,44.50
2018-11-25T18:08:52.444Z,44.70
2018-11-25T18:35:02.708Z,45.70
2018-11-25T18:48:09.901Z,46.10
2018-11-25T19:01:17.193Z,46.30
2018-11-25T19:14:24.367Z,46.60
2018-11-25T19:27:31.529Z,46.50
2018-11-25T19:40:38.715Z,47.00
2018-11-25T19:53:45.912Z,46.50
2018-11-25T20:06:53.106Z,46.60
2018-11-25T20:33:03.040Z,46.80
2018-11-25T20:46:10.225Z,46.80
2018-11-25T20:59:17.440Z,46.80
2018-11-25T21:12:24.644Z,46.90
2018-11-25T21:25:32.245Z,47.00
2018-11-25T21:38:39.557Z,47.10
2018-11-25T21:51:46.755Z,47.20
2018-11-25T22:04:53.913Z,47.30
2018-11-25T22:18:01.250Z,47.40
2018-11-25T22:31:08.423Z,47.50
2018-11-25T22:44:15.564Z,47.60
2018-11-25T22:57:22.696Z,47.70
2018-11-25T23:10:29.844Z,47.20
2018-11-25T23:23:37.044Z,47.50
2018-11-25T23:36:44.197Z,47.70
2018-11-25T23:49:51.431Z,47.70
